Time;durP1;ratioP1;P1;durP2;ratioP2;P2;SDS_P1;SDS_P2;PMS_P1;PMS_P2;Temp;Humidity;BMP_temperature;BMP_pressure;BME280_temperature;BME280_humidity;BME280_pressure;Samples;Min_cycle;Max_cycle;Signal;HPM_P1;HPM_P2
2022/06/20 00:00:37;;;;;;;4.88;2.03;;;;;;;15.95;64.86;99389.44;4964540;28;20054;-95
2022/06/20 00:03:03;;;;;;;2.95;1.85;;;;;;;16.04;65.31;99400.41;4964992;28;20498;-95
2022/06/20 00:05:31;;;;;;;2.97;2.00;;;;;;;15.88;65.37;99389.88;4964911;28;20081;-95
2022/06/20 00:07:56;;;;;;;3.65;2.60;;;;;;;15.89;64.76;99393.38;4964411;28;20523;-93
2022/06/20 00:10:23;;;;;;;7.68;2.20;;;;;;;16.00;64.58;99399.41;4964277;28;20030;-93
2022/06/20 00:12:49;;;;;;;4.93;2.10;;;;;;;15.88;64.56;99370.84;4964422;28;20061;-94
2022/06/20 00:15:34;;;;;;;3.15;2.22;;;;;;;16.14;63.64;99387.44;4964410;28;20023;-94
2022/06/20 00:18:00;;;;;;;5.07;2.22;;;;;;;16.26;62.58;99373.28;4965192;28;20439;-95
2022/06/20 00:20:26;;;;;;;3.22;2.20;;;;;;;16.38;62.51;99382.84;4980676;28;20038;-95
2022/06/20 00:22:52;;;;;;;4.38;2.33;;;;;;;16.20;63.84;99371.78;4964339;28;20527;-94
2022/06/20 00:25:19;;;;;;;5.63;2.13;;;;;;;16.27;64.52;99395.81;4964311;28;20093;-94
2022/06/20 00:27:44;;;;;;;4.53;1.85;;;;;;;15.94;64.68;99357.97;4964353;28;20117;-95
2022/06/20 00:30:14;;;;;;;4.38;2.20;;;;;;;15.96;64.80;99367.44;4964269;28;20528;-94
2022/06/20 00:32:39;;;;;;;4.38;2.35;;;;;;;15.97;64.92;99379.09;4963655;28;20042;-94
2022/06/20 00:35:06;;;;;;;4.05;2.25;;;;;;;15.95;63.91;99375.88;4963227;28;20042;-95
2022/06/20 00:37:31;;;;;;;6.28;2.53;;;;;;;15.97;63.92;99379.09;4979527;28;20183;-93
2022/06/20 00:39:57;;;;;;;8.52;2.22;;;;;;;15.87;64.76;99365.72;4963195;28;20026;-95
2022/06/20 00:42:23;;;;;;;2.67;2.10;;;;;;;15.82;64.58;99363.91;4963485;28;20452;-94
2022/06/20 00:44:52;;;;;;;2.63;2.17;;;;;;;15.78;65.19;99362.91;4963633;28;20046;-95
2022/06/20 00:47:20;;;;;;;2.63;2.15;;;;;;;15.76;64.85;99362.41;4980469;28;20034;-94
2022/06/20 00:50:16;;;;;;;3.92;2.30;;;;;;;15.96;64.03;99381.00;4979936;28;20026;-94
2022/06/20 00:52:54;;;;;;;6.75;2.13;;;;;;;15.73;65.32;99355.69;4996162;28;20038;-94
2022/06/20 00:55:23;;;;;;;10.98;2.40;;;;;;;15.84;65.29;99386.16;4964554;28;20023;-94
2022/06/20 00:58:10;;;;;;;4.05;2.28;;;;;;;15.73;65.34;99384.75;4995006;28;20063;-94
2022/06/20 01:00:38;;;;;;;4.95;2.20;;;;;;;15.50;64.95;99352.06;4979400;28;20068;-92
2022/06/20 01:03:11;;;;;;;6.85;2.53;;;;;;;15.61;64.92;99373.56;4963653;28;20124;-94
2022/06/20 01:05:43;;;;;;;6.05;2.05;;;;;;;15.62;64.77;99356.16;4979792;28;20030;-95
2022/06/20 01:08:14;;;;;;;6.47;2.25;;;;;;;15.60;65.62;99372.75;4979381;28;20125;-93
2022/06/20 01:11:03;;;;;;;6.60;2.00;;;;;;;15.45;65.10;99359.47;4979455;28;20034;-94
2022/06/20 01:13:29;;;;;;;3.28;1.77;;;;;;;15.55;65.61;99370.16;4982083;28;20084;-92
2022/06/20 01:16:19;;;;;;;3.22;2.00;;;;;;;15.55;64.57;99376.38;4964875;28;20389;-94
2022/06/20 01:18:46;;;;;;;2.47;1.90;;;;;;;15.46;65.01;99375.47;4995695;28;20038;-94
2022/06/20 01:21:19;;;;;;;8.63;2.60;;;;;;;15.37;65.70;99369.13;4963566;28;20034;-94
2022/06/20 01:24:03;;;;;;;2.53;1.73;;;;;;;15.59;64.36;99375.78;4963746;28;20045;-93
2022/06/20 01:26:50;;;;;;;6.35;2.45;;;;;;;15.76;62.57;99370.56;4995102;28;20040;-94
2022/06/20 01:29:16;;;;;;;2.60;1.80;;;;;;;15.87;62.02;99365.72;4995164;28;20026;-94
2022/06/20 01:31:53;;;;;;;3.15;1.80;;;;;;;15.81;61.56;99353.34;4963325;28;20137;-93
2022/06/20 01:34:18;;;;;;;2.58;1.83;;;;;;;15.86;61.56;99354.06;4979548;28;20408;-93
2022/06/20 01:39:34;;;;;;;4.22;1.77;;;;;;;15.87;61.84;99346.72;4982680;28;20392;-93
2022/06/20 01:44:46;;;;;;;3.03;1.80;;;;;;;15.94;61.20;99355.28;4981895;28;20038;-92
2022/06/20 01:47:11;;;;;;;3.38;1.75;;;;;;;15.92;61.16;99357.47;4963044;28;20041;-93
2022/06/20 01:49:37;;;;;;;2.38;1.60;;;;;;;15.87;60.96;99350.22;4962239;28;20030;-92
2022/06/20 01:52:19;;;;;;;4.47;1.85;;;;;;;15.81;60.75;99337.88;4962021;28;20030;-92
2022/06/20 01:54:49;;;;;;;3.40;1.80;;;;;;;15.82;61.86;99368.56;4963525;28;20034;-94
2022/06/20 01:57:15;;;;;;;5.57;1.92;;;;;;;15.49;62.51;99352.34;4961991;28;20038;-95
2022/06/20 01:59:47;;;;;;;2.90;1.90;;;;;;;15.50;63.55;99368.34;4977680;28;20091;-94
2022/06/20 02:02:13;;;;;;;3.20;1.70;;;;;;;15.35;63.45;99360.47;4978268;28;20041;-95
2022/06/20 02:04:38;;;;;;;2.58;1.88;;;;;;;15.39;63.50;99358.78;4962021;28;20038;-94
2022/06/20 02:07:06;;;;;;;6.80;2.05;;;;;;;15.40;63.23;99365.81;4978911;28;20468;-94
2022/06/20 02:09:32;;;;;;;3.45;2.03;;;;;;;15.11;63.72;99338.97;4962590;28;20042;-94
2022/06/20 02:11:57;;;;;;;4.20;1.85;;;;;;;15.28;64.28;99360.88;4978294;28;20056;-95
2022/06/20 02:14:31;;;;;;;2.20;1.63;;;;;;;15.31;63.80;99360.25;4962553;28;20120;-95
2022/06/20 02:17:01;;;;;;;4.25;2.30;;;;;;;15.13;64.21;99351.13;4963457;28;20024;-94
2022/06/20 02:19:31;;;;;;;3.30;1.90;;;;;;;15.33;63.72;99363.47;4978226;28;20056;-94
2022/06/20 02:22:00;;;;;;;4.07;1.67;;;;;;;15.37;62.06;99331.13;4962176;28;20038;-95
2022/06/20 02:24:28;;;;;;;3.78;1.58;;;;;;;15.50;61.70;99340.38;4962491;28;20161;-95
2022/06/20 02:26:54;;;;;;;2.13;1.60;;;;;;;15.49;61.60;99336.88;4962329;28;20030;-94
2022/06/20 02:29:25;;;;;;;5.55;1.95;;;;;;;15.50;61.20;99337.66;4962193;28;20050;-94
2022/06/20 02:31:55;;;;;;;1.95;1.50;;;;;;;15.61;61.30;99349.16;4963382;28;20030;-94
2022/06/20 02:34:26;;;;;;;2.67;1.80;;;;;;;15.65;61.18;99350.16;4962983;28;20040;-94
2022/06/20 02:36:51;;;;;;;3.25;1.60;;;;;;;15.54;61.13;99342.22;4962600;28;20030;-95
2022/06/20 02:39:17;;;;;;;5.07;1.92;;;;;;;15.61;61.41;99355.38;4978344;28;20405;-94
2022/06/20 02:41:43;;;;;;;2.17;1.73;;;;;;;15.64;61.15;99364.81;4962144;28;20026;-94
2022/06/20 02:44:17;;;;;;;3.53;1.67;;;;;;;15.46;61.34;99337.47;4962643;28;20030;-94
2022/06/20 02:46:44;;;;;;;4.97;1.60;;;;;;;15.53;61.23;99337.06;4962519;28;20114;-94
2022/06/20 02:49:09;;;;;;;3.33;1.80;;;;;;;15.27;62.94;99334.88;4961243;28;20037;-94
2022/06/20 02:51:40;;;;;;;6.93;2.00;;;;;;;15.24;64.14;99359.06;4961819;28;20030;-95
2022/06/20 02:54:07;;;;;;;5.90;2.25;;;;;;;15.01;64.84;99333.72;4961948;28;20033;-94
2022/06/20 02:56:36;;;;;;;5.20;2.10;;;;;;;14.91;65.50;99335.50;4977785;28;20033;-95
2022/06/20 02:59:13;;;;;;;7.18;1.90;;;;;;;14.93;65.35;99344.13;4977304;28;20476;-94
2022/06/20 03:01:45;;;;;;;3.55;2.03;;;;;;;14.86;65.62;99351.06;4965990;28;20046;-94
2022/06/20 03:04:11;;;;;;;7.25;2.70;;;;;;;14.75;66.24;99343.09;4965299;28;20040;-95
2022/06/20 03:06:39;;;;;;;8.68;2.42;;;;;;;14.73;66.21;99344.47;4966208;28;20030;-96
2022/06/20 03:09:04;;;;;;;5.82;2.10;;;;;;;14.70;66.17;99334.25;4965505;28;20072;-95
2022/06/20 03:11:31;;;;;;;9.32;2.17;;;;;;;14.80;66.63;99357.69;4965597;28;20034;-95
2022/06/20 03:14:00;;;;;;;6.03;2.40;;;;;;;14.73;66.36;99330.94;4965341;28;20407;-96
2022/06/20 03:16:25;;;;;;;11.77;3.15;;;;;;;14.63;66.67;99322.97;4965630;28;20037;-96
2022/06/20 03:18:51;;;;;;;4.90;2.25;;;;;;;14.73;66.39;99333.63;4965076;28;20026;-95
2022/06/20 03:21:18;;;;;;;7.25;2.10;;;;;;;14.66;66.21;99328.59;4964820;28;20026;-95
2022/06/20 03:27:06;;;;;;;4.25;2.50;;;;;;;14.77;66.79;99345.50;5014988;28;20045;-95
2022/06/20 03:29:32;;;;;;;4.50;2.33;;;;;;;14.75;66.49;99343.09;4965171;28;20021;-95
2022/06/20 03:31:57;;;;;;;5.22;2.15;;;;;;;14.69;66.98;99332.63;4964629;28;20032;-96
2022/06/20 03:34:23;;;;;;;13.85;3.53;;;;;;;14.58;66.73;99321.16;4965063;28;20480;-96
2022/06/20 03:36:48;;;;;;;4.93;2.53;;;;;;;14.65;67.63;99337.03;4965754;28;20034;-95
2022/06/20 03:39:15;;;;;;;8.90;2.67;;;;;;;14.75;67.43;99336.84;4963884;28;20030;-95
2022/06/20 03:41:41;;;;;;;6.43;2.58;;;;;;;14.77;66.98;99328.44;4964623;28;20091;-96
2022/06/20 03:44:10;;;;;;;9.13;2.70;;;;;;;14.90;66.63;99343.91;4965028;28;20125;-96
2022/06/20 03:46:46;;;;;;;5.32;2.70;;;;;;;14.87;66.67;99317.41;4965071;28;20029;-96
2022/06/20 03:49:55;;;;;;;6.20;2.60;;;;;;;15.02;65.75;99319.06;4964978;28;20034;-95
2022/06/20 03:52:27;;;;;;;3.70;2.38;;;;;;;15.23;63.84;99333.84;4902931;29;20032;-94
2022/06/20 03:54:58;;;;;;;7.93;2.35;;;;;;;15.30;63.29;99328.81;4959989;28;20100;-95
2022/06/20 03:57:29;;;;;;;5.97;2.40;;;;;;;15.43;63.16;99324.50;4964564;28;20030;-94
2022/06/20 04:00:00;;;;;;;8.63;2.35;;;;;;;15.52;62.56;99333.56;4963776;28;20046;-95
2022/06/20 04:03:06;;;;;;;6.78;2.67;;;;;;;15.66;63.29;99349.81;4961515;28;20050;-95
2022/06/20 04:05:59;;;;;;;8.52;2.78;;;;;;;15.46;62.92;99315.78;4977465;28;20034;-95
2022/06/20 04:11:41;;;;;;;5.45;2.00;;;;;;;15.39;63.49;99317.28;4994472;28;20100;-96
2022/06/20 04:14:31;;;;;;;5.43;2.40;;;;;;;15.69;62.25;99348.44;4961301;28;20053;-95
2022/06/20 04:20:05;;;;;;;3.45;1.80;;;;;;;15.63;62.55;99333.34;4981783;28;20065;-94
2022/06/20 04:22:34;;;;;;;5.55;2.10;;;;;;;15.75;61.82;99355.41;4977234;28;20124;-95
2022/06/20 04:25:12;;;;;;;11.07;2.22;;;;;;;15.70;61.50;99331.81;4964293;28;20045;-94
2022/06/20 04:27:48;;;;;;;7.95;2.78;;;;;;;15.68;60.50;99327.81;4963536;28;20065;-95
2022/06/20 04:30:40;;;;;;;8.00;2.00;;;;;;;15.75;60.33;99331.75;4966523;28;20015;-96
2022/06/20 04:33:14;;;;;;;4.88;2.80;;;;;;;15.71;61.07;99309.00;4984023;28;20432;-94
2022/06/20 04:35:44;;;;;;;5.20;1.73;;;;;;;15.90;60.41;99332.53;4980875;28;20027;-94
2022/06/20 04:38:26;;;;;;;5.20;2.00;;;;;;;16.11;60.24;99350.00;4981424;28;20037;-95
2022/06/20 04:41:14;;;;;;;6.13;2.40;;;;;;;16.10;59.82;99342.97;4968719;28;20121;-95
2022/06/20 04:43:45;;;;;;;4.20;2.50;;;;;;;16.24;59.45;99353.78;4983064;28;20034;-93
2022/06/20 04:46:16;;;;;;;10.35;2.75;;;;;;;16.25;60.93;99340.97;4982913;28;20037;-94
2022/06/20 04:49:02;;;;;;;6.80;2.50;;;;;;;16.25;60.20;99319.25;4999466;28;20041;-95
2022/06/20 04:51:33;;;;;;;8.18;2.80;;;;;;;16.38;59.64;99329.28;4943574;29;20047;-94
2022/06/20 04:57:37;;;;;;;9.65;3.95;;;;;;;16.71;59.58;99351.59;5075430;23;20105;-92
2022/06/20 05:00:04;;;;;;;18.42;4.32;;;;;;;16.72;58.58;99323.28;4972357;28;20083;-96
2022/06/20 05:02:30;;;;;;;13.90;3.92;;;;;;;16.76;58.25;99320.75;4969866;28;20061;-93
2022/06/20 05:04:56;;;;;;;9.75;3.63;;;;;;;16.94;58.33;99336.06;4967782;28;20029;-93
2022/06/20 05:11:28;;;;;;;12.63;3.53;;;;;;;17.24;57.46;99339.09;5331618;23;20045;-95
2022/06/20 05:19:47;;;;;;;7.20;3.22;;;;;;;17.46;56.66;99343.69;5193377;23;20039;-96
2022/06/20 05:22:24;;;;;;;14.82;4.13;;;;;;;17.52;56.24;99336.97;5112151;23;20055;-91
2022/06/20 05:24:50;;;;;;;7.03;2.90;;;;;;;17.58;55.80;99322.09;5000651;28;20515;-96
2022/06/20 05:27:37;;;;;;;12.40;3.40;;;;;;;17.74;55.26;99337.97;4973738;28;20037;-95
2022/06/20 05:34:19;;;;;;;7.65;4.35;;;;;;;18.16;55.99;99349.31;4961967;29;20039;-93
2022/06/20 05:37:27;;;;;;;6.88;3.30;;;;;;;18.19;54.74;99324.13;4945980;29;20035;-95
2022/06/20 05:40:18;;;;;;;6.85;3.88;;;;;;;18.38;55.19;99326.53;4925813;29;20465;-91
2022/06/20 05:42:44;;;;;;;9.00;3.65;;;;;;;18.45;54.29;99312.41;4919683;29;20497;-92
2022/06/20 05:45:19;;;;;;;10.35;3.90;;;;;;;18.62;54.04;99314.34;4923226;29;20552;-92
2022/06/20 05:47:48;;;;;;;7.25;2.90;;;;;;;18.65;53.96;99305.50;4908311;29;20171;-93
2022/06/20 05:50:53;;;;;;;10.15;3.40;;;;;;;18.84;53.32;99314.13;4918469;29;20016;-92
2022/06/20 05:53:53;;;;;;;9.32;3.72;;;;;;;18.82;52.88;99294.56;4852733;29;20049;-95
2022/06/20 05:56:26;;;;;;;8.68;4.28;;;;;;;19.11;52.91;99312.13;4911252;29;20034;-94
2022/06/20 05:58:53;;;;;;;9.55;4.22;;;;;;;19.36;51.95;99318.59;4906337;29;20032;-93
2022/06/20 06:01:42;;;;;;;7.35;4.30;;;;;;;19.36;51.11;99302.22;4907317;29;20497;-93
2022/06/20 06:04:23;;;;;;;6.85;3.25;;;;;;;19.42;52.05;99302.84;4942194;29;20102;-94
2022/06/20 06:06:56;;;;;;;12.75;4.20;;;;;;;19.64;51.34;99305.31;4924973;29;20103;-91
2022/06/20 06:09:31;;;;;;;11.55;3.97;;;;;;;19.71;51.89;99294.66;4925645;29;20031;-92
2022/06/20 06:12:02;;;;;;;5.13;2.67;;;;;;;19.84;50.92;99317.44;4939722;29;20027;-91
2022/06/20 06:17:42;;;;;;;15.52;9.60;;;;;;;20.09;50.63;99298.44;4968724;29;20031;-94
2022/06/20 06:20:15;;;;;;;7.00;4.00;;;;;;;20.04;50.45;99274.81;4915907;29;20051;-93
2022/06/20 06:23:05;;;;;;;8.75;3.53;;;;;;;20.19;50.60;99271.50;4907353;28;20069;-95
2022/06/20 06:25:42;;;;;;;19.50;3.38;;;;;;;20.43;49.66;99277.41;4941128;29;20042;-93
2022/06/20 06:31:29;;;;;;;91.95;6.43;;;;;;;20.74;49.12;99272.25;5274987;23;20129;-93
2022/06/20 06:34:03;;;;;;;8.43;3.05;;;;;;;20.79;48.41;99268.50;4952591;28;20063;-94
2022/06/20 06:37:22;;;;;;;11.43;3.25;;;;;;;20.82;48.43;99245.94;4954161;28;20030;-96
2022/06/20 06:39:58;;;;;;;11.18;8.65;;;;;;;21.10;48.86;99269.91;4959338;28;20037;-95
2022/06/20 06:42:27;;;;;;;15.60;3.42;;;;;;;21.14;48.67;99248.94;4970232;28;20025;-93
2022/06/20 06:45:00;;;;;;;4.40;2.67;;;;;;;21.32;48.79;99261.25;4965897;28;20077;-94
2022/06/20 06:54:20;;;;;;;15.50;5.70;;;;;;;21.93;47.66;99265.84;4984280;28;20030;-94
2022/06/20 06:57:35;;;;;;;8.80;3.28;;;;;;;21.94;46.46;99242.78;4946832;28;20070;-93
2022/06/20 07:03:49;;;;;;;10.98;3.92;;;;;;;22.42;46.03;99248.44;4887455;29;20040;-94
2022/06/20 07:06:35;;;;;;;12.93;4.95;;;;;;;22.39;46.69;99228.00;4866366;29;20147;-94
2022/06/20 07:09:30;;;;;;;13.23;5.60;;;;;;;22.46;45.30;99223.84;4835359;29;20100;-94
2022/06/20 07:12:05;;;;;;;17.02;5.70;;;;;;;22.74;46.15;99241.06;4840454;29;20053;-96
2022/06/20 07:14:34;;;;;;;21.73;6.20;;;;;;;22.73;46.12;99225.75;4907951;29;20456;-95
2022/06/20 07:17:47;;;;;;;13.82;5.50;;;;;;;22.93;45.48;99234.06;4913708;28;20045;-95
2022/06/20 07:20:39;;;;;;;22.13;7.10;;;;;;;23.08;45.41;99224.25;4918991;28;20070;-95
2022/06/20 07:23:09;;;;;;;12.65;5.75;;;;;;;23.25;43.85;99214.84;4927580;29;20531;-95
2022/06/20 07:25:40;;;;;;;11.65;5.40;;;;;;;23.40;43.18;99225.00;4933306;29;20050;-96
2022/06/20 07:28:34;;;;;;;17.42;6.82;;;;;;;23.66;43.53;99240.91;4941074;29;20506;-96
2022/06/20 07:31:14;;;;;;;10.73;6.70;;;;;;;23.75;43.40;99224.19;4919955;29;20457;-93
2022/06/20 07:33:43;;;;;;;19.95;12.27;;;;;;;23.80;42.42;99221.16;4919336;29;20039;-94
2022/06/20 07:36:12;;;;;;;10.13;5.60;;;;;;;23.95;41.00;99233.28;4920732;29;20529;-94
2022/06/20 07:39:31;;;;;;;12.77;5.47;;;;;;;23.91;41.08;99204.91;4928396;29;20035;-95
2022/06/20 07:42:52;;;;;;;21.23;10.73;;;;;;;24.22;41.77;99225.97;4874504;29;20052;-95
2022/06/20 07:45:42;;;;;;;25.83;9.57;;;;;;;24.28;40.76;99218.19;4861768;29;20040;-93
2022/06/20 07:52:06;;;;;;;6.70;3.75;;;;;;;24.52;39.65;99214.34;4830541;29;20051;-94
2022/06/20 08:04:42;;;;;;;4.47;2.65;;;;;;;25.16;37.73;99209.09;4827910;29;19924;-95
2022/06/20 08:07:20;;;;;;;8.52;2.80;;;;;;;25.11;36.64;99184.59;4826308;29;20137;-92
2022/06/20 08:10:26;;;;;;;8.35;2.67;;;;;;;25.20;34.82;99176.88;4861858;29;20088;-93
2022/06/20 08:13:06;;;;;;;3.50;1.88;;;;;;;25.19;33.44;99172.50;4874013;29;20032;-92
2022/06/20 08:15:40;;;;;;;5.07;2.17;;;;;;;25.31;35.09;99175.09;4871066;29;20029;-93
2022/06/20 08:18:08;;;;;;;4.28;1.80;;;;;;;25.37;34.69;99183.84;4926350;28;20054;-94
2022/06/20 08:20:36;;;;;;;8.85;3.80;;;;;;;25.57;34.69;99171.50;4951738;28;20053;-95
2022/06/20 08:23:44;;;;;;;7.78;2.25;;;;;;;25.80;36.14;99182.44;4953254;28;20118;-96
2022/06/20 08:26:36;;;;;;;2.88;1.67;;;;;;;25.81;34.11;99172.97;4956664;28;20505;-95
2022/06/20 08:29:34;;;;;;;9.48;2.45;;;;;;;25.88;32.62;99164.00;4941050;28;20069;-94
2022/06/20 08:32:12;;;;;;;3.80;2.15;;;;;;;26.00;31.47;99166.53;4899188;29;20070;-92
2022/06/20 08:34:56;;;;;;;6.63;3.08;;;;;;;26.19;31.82;99175.81;4890488;29;20036;-92
2022/06/20 08:37:37;;;;;;;4.43;1.55;;;;;;;26.24;30.32;99161.66;4875546;29;20461;-92
2022/06/20 08:40:24;;;;;;;5.28;2.28;;;;;;;26.41;29.76;99190.59;4892862;29;20032;-93
2022/06/20 08:42:59;;;;;;;5.47;1.60;;;;;;;26.37;28.62;99171.22;4921842;29;20067;-92
2022/06/20 08:45:52;;;;;;;5.38;2.38;;;;;;;26.28;28.57;99169.97;4906256;29;20032;-91
2022/06/20 08:48:38;;;;;;;3.90;1.55;;;;;;;26.52;28.40;99190.69;4902355;29;20044;-92
2022/06/20 08:52:08;;;;;;;4.43;1.90;;;;;;;26.59;29.95;99177.00;4894423;29;20032;-93
2022/06/20 08:54:55;;;;;;;10.45;8.05;;;;;;;26.72;29.38;99180.25;4870954;29;20052;-93
2022/06/20 08:57:26;;;;;;;4.55;2.30;;;;;;;26.86;28.86;99190.63;4905300;29;20040;-94
2022/06/20 09:00:03;;;;;;;3.33;2.10;;;;;;;26.88;29.03;99182.75;4919728;29;20095;-92
2022/06/20 09:02:58;;;;;;;3.83;1.55;;;;;;;26.81;28.23;99176.00;4923855;29;20038;-93
2022/06/20 09:06:04;;;;;;;;;;;;;;;;;;;;;
2022/06/20 09:09:01;;;;;;;3.42;1.60;;;;;;;26.90;28.26;99186.72;4957872;29;20027;-91
2022/06/20 09:11:41;;;;;;;3.80;1.80;;;;;;;26.95;28.64;99178.06;4964777;28;20047;-94
2022/06/20 09:14:38;;;;;;;8.45;3.10;;;;;;;26.93;28.67;99161.06;4956937;29;20347;-93
2022/06/20 09:17:19;;;;;;;6.70;2.70;;;;;;;27.19;28.60;99186.91;4940743;29;20058;-90
2022/06/20 09:20:12;;;;;;;11.95;2.47;;;;;;;27.31;29.18;99188.59;4956313;28;20116;-92
2022/06/20 09:23:06;;;;;;;;;;;;;;;;;;;;;
2022/06/20 09:25:49;;;;;;;4.22;1.90;;;;;;;27.39;27.26;99179.16;4962238;29;20114;-95
2022/06/20 09:28:27;;;;;;;6.63;1.70;;;;;;;27.35;26.47;99175.56;4974290;28;20023;-92
2022/06/20 09:31:45;;;;;;;2.75;1.88;;;;;;;27.11;27.03;99141.84;4964604;28;20090;-95
2022/06/20 09:34:29;;;;;;;5.97;2.58;;;;;;;27.35;27.12;99176.38;4992782;28;20038;-92
2022/06/20 09:37:19;;;;;;;7.15;2.17;;;;;;;27.37;27.40;99171.25;4981033;28;20030;-95
2022/06/20 09:40:21;;;;;;;3.85;1.83;;;;;;;27.38;27.52;99166.50;4984631;28;20519;-94
2022/06/20 09:46:45;;;;;;;;;;;;;;;;;;;;;
2022/06/20 09:49:46;;;;;;;7.93;3.70;;;;;;;27.40;26.70;99164.94;4868558;29;20057;-92
2022/06/20 09:52:39;;;;;;;8.93;2.83;;;;;;;27.58;28.21;99161.47;4865907;29;20058;-94
2022/06/20 09:55:26;;;;;;;7.28;3.88;;;;;;;27.45;27.37;99140.88;4850777;29;20450;-94
2022/06/20 09:58:25;;;;;;;2.25;1.55;;;;;;;27.48;26.16;99153.94;4955074;28;20038;-92
2022/06/20 10:00:59;;;;;;;3.10;1.90;;;;;;;27.57;26.78;99151.59;4943936;28;20035;-94
2022/06/20 10:03:53;;;;;;;5.20;2.22;;;;;;;27.84;26.85;99154.84;4990643;28;20081;-93
2022/06/20 10:06:37;;;;;;;12.90;6.20;;;;;;;27.98;26.58;99148.59;4962723;28;20031;-94
2022/06/20 10:09:26;;;;;;;2.65;1.80;;;;;;;28.13;25.92;99143.88;4960050;28;20046;-93
2022/06/20 10:12:09;;;;;;;4.15;1.60;;;;;;;28.20;25.82;99141.13;4912825;28;20132;-95
2022/06/20 10:15:01;;;;;;;4.05;1.58;;;;;;;28.39;26.08;99143.53;4963455;28;20045;-95
2022/06/20 10:17:43;;;;;;;3.50;1.60;;;;;;;28.27;25.83;99119.00;4962150;28;20477;-94
2022/06/20 10:20:26;;;;;;;4.50;2.00;;;;;;;28.36;26.11;99126.91;4934902;28;20461;-93
2022/06/20 10:23:19;;;;;;;3.15;2.53;;;;;;;28.36;26.16;99147.06;4962652;28;20034;-93
2022/06/20 10:26:07;;;;;;;11.60;1.90;;;;;;;28.27;26.05;99146.69;4951810;28;20030;-93
2022/06/20 10:28:54;;;;;;;6.03;1.80;;;;;;;28.29;26.83;99144.31;4995138;28;20089;-90
2022/06/20 10:31:46;;;;;;;2.22;1.40;;;;;;;28.27;26.35;99124.53;4977684;28;20054;-92
2022/06/20 10:34:58;;;;;;;;;;;;;;;28.44;26.40;99134.03;4964321;28;20042;-94
2022/06/20 10:37:37;;;;;;;4.80;1.40;;;;;;;27.92;27.69;99105.88;4977267;28;19918;-95
2022/06/20 10:40:08;;;;;;;6.60;1.40;;;;;;;28.20;28.03;99141.94;4946538;28;20037;-96
2022/06/20 10:43:09;;;;;;;1.70;1.25;;;;;;;27.61;28.13;99120.00;4983042;28;20094;-96
2022/06/20 10:45:45;;;;;;;2.28;1.50;;;;;;;27.79;27.49;99130.34;4961034;28;20034;-90
2022/06/20 10:48:42;;;;;;;8.02;5.63;;;;;;;27.78;28.14;99131.50;4959905;28;20022;-88
2022/06/20 10:51:33;;;;;;;4.53;2.38;;;;;;;27.82;27.66;99126.78;4975451;28;20068;-89
2022/06/20 10:54:22;;;;;;;4.82;1.88;;;;;;;27.73;28.42;99116.09;4968147;28;20030;-88
2022/06/20 10:57:35;;;;;;;2.63;1.50;;;;;;;27.92;26.83;99125.25;4981409;28;20042;-87
2022/06/20 11:00:16;;;;;;;2.55;1.70;;;;;;;27.91;26.49;99120.91;4944155;28;20038;-94
2022/06/20 11:03:23;;;;;;;4.45;1.60;;;;;;;27.91;27.13;99118.94;4974934;28;20088;-92
2022/06/20 11:06:33;;;;;;;2.67;1.80;;;;;;;28.02;27.92;99102.34;4968314;28;20085;-93
2022/06/20 11:09:18;;;;;;;3.25;1.63;;;;;;;28.24;28.08;99099.59;4956619;28;20042;-90
2022/06/20 11:12:10;;;;;;;3.25;1.98;;;;;;;28.45;27.61;99094.06;4989585;28;20022;-91
2022/06/20 11:15:16;;;;;;;3.08;1.80;;;;;;;28.56;27.20;99091.34;4930243;28;20104;-94
2022/06/20 11:18:15;;;;;;;2.45;1.70;;;;;;;28.80;27.17;99084.97;4926303;28;20598;-92
2022/06/20 11:20:50;;;;;;;4.72;1.80;;;;;;;28.88;27.00;99084.94;4969882;28;20033;-91
2022/06/20 11:23:20;;;;;;;2.42;1.55;;;;;;;28.88;27.42;99076.63;4952871;28;20106;-90
2022/06/20 11:26:27;;;;;;;4.80;1.65;;;;;;;29.04;27.00;99093.63;4951686;28;20026;-90
2022/06/20 11:29:33;;;;;;;3.13;1.70;;;;;;;29.15;27.25;99079.75;4952132;28;20039;-89
2022/06/20 11:32:33;;;;;;;3.83;1.85;;;;;;;29.35;27.04;99085.63;4960648;28;20420;-91
2022/06/20 11:35:08;;;;;;;4.53;2.30;;;;;;;29.44;27.13;99069.31;4985328;28;20092;-92
2022/06/20 11:37:58;;;;;;;10.90;1.80;;;;;;;29.40;27.04;99065.78;4961132;28;20026;-92
2022/06/20 11:40:41;;;;;;;4.03;1.80;;;;;;;29.42;26.98;99074.47;4994271;28;20030;-94
2022/06/20 11:43:47;;;;;;;3.33;1.50;;;;;;;29.27;26.91;99067.44;4980790;28;20030;-95
2022/06/20 11:47:01;;;;;;;6.60;1.42;;;;;;;28.97;27.15;99041.75;4968837;28;20556;-94
2022/06/20 11:50:04;;;;;;;4.45;1.60;;;;;;;29.07;27.51;99064.28;4907469;29;20036;-94
2022/06/20 11:52:44;;;;;;;4.80;1.80;;;;;;;29.12;27.78;99055.63;4907556;29;20111;-95
2022/06/20 11:55:25;;;;;;;3.97;1.80;;;;;;;29.01;26.63;99039.78;4955094;28;20141;-95
2022/06/20 11:58:03;;;;;;;7.35;1.98;;;;;;;29.10;26.85;99052.41;4965700;28;20035;-96
2022/06/20 12:00:54;;;;;;;4.20;2.10;;;;;;;28.98;27.19;99023.16;4966830;28;20390;-96
2022/06/20 12:04:03;;;;;;;4.70;1.98;;;;;;;29.14;27.00;99047.69;4968645;28;20034;-96
2022/06/20 12:06:34;;;;;;;4.50;1.50;;;;;;;29.07;26.34;99023.50;4983705;28;20031;-94
2022/06/20 12:09:19;;;;;;;6.00;1.90;;;;;;;29.26;27.42;99027.81;4947102;28;20484;-95
2022/06/20 12:12:06;;;;;;;4.30;2.40;;;;;;;29.31;27.71;99019.06;4932291;28;20050;-92
2022/06/20 12:15:05;;;;;;;8.82;2.13;;;;;;;29.51;26.41;99021.34;4948436;28;20081;-94
2022/06/20 12:17:57;;;;;;;5.57;1.90;;;;;;;29.56;26.67;99007.84;4984641;28;20472;-95
2022/06/20 12:23:21;;;;;;;2.17;1.50;;;;;;;29.84;27.13;98997.75;4951642;28;20158;-93
2022/06/20 12:26:03;;;;;;;3.40;1.60;;;;;;;30.15;26.78;99020.94;4951591;28;20033;-92
2022/06/20 12:28:44;;;;;;;6.60;1.70;;;;;;;29.99;26.65;99001.22;4962748;28;20095;-94
2022/06/20 12:31:39;;;;;;;;;;;;;;;;;;;;;
2022/06/20 12:34:34;;;;;;;3.33;1.60;;;;;;;30.42;26.58;99021.09;4922507;29;20144;-94
2022/06/20 12:37:27;;;;;;;6.15;2.03;;;;;;;30.62;26.28;99021.28;4906289;29;20414;-91
2022/06/20 12:40:19;;;;;;;3.50;1.50;;;;;;;30.44;25.68;99019.91;4935939;29;20510;-92
2022/06/20 12:43:21;;;;;;;9.13;2.17;;;;;;;30.49;26.14;99005.56;4927238;29;20103;-92
2022/06/20 12:46:34;;;;;;;4.65;1.38;;;;;;;30.43;25.02;99002.44;4896949;29;20028;-92
2022/06/20 12:49:04;;;;;;;11.95;3.85;;;;;;;30.49;25.54;98986.91;4874659;29;20052;-94
2022/06/20 12:51:53;;;;;;;6.05;2.40;;;;;;;30.61;25.86;99003.06;4895140;29;20043;-91
2022/06/20 12:54:30;;;;;;;5.75;1.70;;;;;;;30.76;25.18;99002.91;4914265;29;20494;-93
2022/06/20 12:57:20;;;;;;;5.97;2.00;;;;;;;30.97;25.46;98997.09;4921117;29;20099;-94
2022/06/20 13:00:10;;;;;;;4.95;2.10;;;;;;;31.14;25.08;98981.38;4978992;28;20030;-92
2022/06/20 13:02:54;;;;;;;3.47;1.80;;;;;;;31.24;23.85;98987.25;4981450;28;20497;-92
2022/06/20 13:05:35;;;;;;;5.78;2.33;;;;;;;31.03;25.06;98980.75;4966572;28;20511;-95
2022/06/20 13:08:39;;;;;;;5.63;2.13;;;;;;;31.32;23.72;98970.03;4979832;28;20027;-93
2022/06/20 13:11:11;;;;;;;13.15;7.82;;;;;;;31.53;24.30;98966.16;4969181;28;20031;-94
2022/06/20 13:14:21;;;;;;;7.13;1.80;;;;;;;31.45;23.12;98945.22;4981426;28;20492;-94
2022/06/20 13:17:26;;;;;;;3.57;1.60;;;;;;;31.84;22.83;98957.75;4962257;28;20030;-91
2022/06/20 13:20:19;;;;;;;3.05;1.40;;;;;;;31.94;21.94;98956.00;4913042;29;20288;-94
2022/06/20 13:23:22;;;;;;;3.67;1.52;;;;;;;32.10;22.43;98944.19;4926682;29;20046;-94
2022/06/20 13:26:19;;;;;;;2.45;1.40;;;;;;;32.03;23.07;98930.41;4923245;29;20027;-95
2022/06/20 13:28:58;;;;;;;;;;;;;;;;;;;;;
2022/06/20 13:39:02;;;;;;;4.88;1.75;;;;;;;33.20;21.71;98907.78;5396761;23;20050;-94
2022/06/20 13:41:36;;;;;;;4.03;1.73;;;;;;;33.72;22.14;98914.50;4886343;29;20147;-93
2022/06/20 13:44:30;;;;;;;2.15;1.70;;;;;;;34.10;21.00;98930.72;4966092;28;20019;-94
2022/06/20 13:47:55;;;;;;;3.92;1.60;;;;;;;34.39;20.79;98922.38;4981321;28;20528;-89
2022/06/20 13:50:55;;;;;;;11.95;2.50;;;;;;;34.68;20.65;98904.81;4910381;29;20027;-93
2022/06/20 13:53:48;;;;;;;5.60;1.98;;;;;;;34.70;20.05;98898.75;4913599;28;20030;-90
2022/06/20 13:56:37;;;;;;;5.43;1.65;;;;;;;34.99;19.50;98918.28;4963999;28;20030;-96
2022/06/20 13:59:38;;;;;;;2.38;1.40;;;;;;;34.36;20.11;98906.47;4948914;28;20058;-95
2022/06/20 14:06:10;;;;;;;5.78;1.52;;;;;;;32.69;21.69;98895.31;4919295;29;20131;-96